sensor_id;sensor_type;location;lat;lon;timestamp;pressure;altitude;pressure_sealevel;temperature;humidity
74466;BME280;62916;50.044;15.938;2023-02-15T00:02:19;100774.78;;;22.35;47.51
74466;BME280;62916;50.044;15.938;2023-02-15T00:04:50;100768.29;;;22.33;47.26
74466;BME280;62916;50.044;15.938;2023-02-15T00:07:23;100771.56;;;22.33;47.34
74466;BME280;62916;50.044;15.938;2023-02-15T00:09:53;100769.54;;;22.33;47.39
74466;BME280;62916;50.044;15.938;2023-02-15T00:12:24;100767.95;;;22.32;47.46
74466;BME280;62916;50.044;15.938;2023-02-15T00:14:55;100769.88;;;22.31;47.33
74466;BME280;62916;50.044;15.938;2023-02-15T00:17:28;100767.45;;;22.31;47.24
74466;BME280;62916;50.044;15.938;2023-02-15T00:19:59;100767.42;;;22.29;47.38
74466;BME280;62916;50.044;15.938;2023-02-15T00:22:30;100769.34;;;22.29;47.49
74466;BME280;62916;50.044;15.938;2023-02-15T00:25:01;100763.41;;;22.27;47.38
74466;BME280;62916;50.044;15.938;2023-02-15T00:27:31;100765.11;;;22.27;47.32
74466;BME280;62916;50.044;15.938;2023-02-15T00:30:04;100764.10;;;22.27;47.40
74466;BME280;62916;50.044;15.938;2023-02-15T00:32:36;100763.65;;;22.26;47.27
74466;BME280;62916;50.044;15.938;2023-02-15T00:35:08;100757.55;;;22.26;47.36
74466;BME280;62916;50.044;15.938;2023-02-15T00:37:40;100749.81;;;22.23;47.33
74466;BME280;62916;50.044;15.938;2023-02-15T00:40:12;100749.41;;;22.24;47.23
74466;BME280;62916;50.044;15.938;2023-02-15T00:42:43;100750.27;;;22.23;47.40
74466;BME280;62916;50.044;15.938;2023-02-15T00:45:14;100745.27;;;22.18;45.25
74466;BME280;62916;50.044;15.938;2023-02-15T00:47:45;100748.38;;;22.10;45.98
74466;BME280;62916;50.044;15.938;2023-02-15T00:50:18;100743.63;;;22.26;46.64
74466;BME280;62916;50.044;15.938;2023-02-15T00:52:51;100745.75;;;22.39;46.33
74466;BME280;62916;50.044;15.938;2023-02-15T00:55:22;100745.30;;;22.47;46.24
74466;BME280;62916;50.044;15.938;2023-02-15T00:57:53;100741.90;;;22.53;45.99
74466;BME280;62916;50.044;15.938;2023-02-15T01:00:24;100671.60;;;22.14;46.00
74466;BME280;62916;50.044;15.938;2023-02-15T01:02:54;100699.59;;;22.35;45.74
74466;BME280;62916;50.044;15.938;2023-02-15T01:05:25;100673.35;;;22.23;45.80
74466;BME280;62916;50.044;15.938;2023-02-15T01:07:56;100734.33;;;22.60;45.85
74466;BME280;62916;50.044;15.938;2023-02-15T01:10:28;100730.90;;;22.57;45.61
74466;BME280;62916;50.044;15.938;2023-02-15T01:12:59;100731.98;;;22.61;45.67
74466;BME280;62916;50.044;15.938;2023-02-15T01:15:30;100728.95;;;22.59;45.58
74466;BME280;62916;50.044;15.938;2023-02-15T01:18:01;100729.23;;;22.60;45.60
74466;BME280;62916;50.044;15.938;2023-02-15T01:20:36;100728.56;;;22.60;45.63
74466;BME280;62916;50.044;15.938;2023-02-15T01:23:08;100725.06;;;22.59;45.71
74466;BME280;62916;50.044;15.938;2023-02-15T01:25:39;100723.48;;;22.58;45.51
74466;BME280;62916;50.044;15.938;2023-02-15T01:28:10;100717.45;;;22.58;45.50
74466;BME280;62916;50.044;15.938;2023-02-15T01:30:41;100679.77;;;22.33;45.51
74466;BME280;62916;50.044;15.938;2023-02-15T01:33:12;100720.57;;;22.56;45.35
74466;BME280;62916;50.044;15.938;2023-02-15T01:35:47;100720.63;;;22.55;45.42
74466;BME280;62916;50.044;15.938;2023-02-15T01:38:18;100711.23;;;22.54;45.28
74466;BME280;62916;50.044;15.938;2023-02-15T01:40:51;100706.36;;;22.50;45.38
74466;BME280;62916;50.044;15.938;2023-02-15T01:43:27;100704.64;;;22.52;45.45
74466;BME280;62916;50.044;15.938;2023-02-15T01:46:10;100700.13;;;22.51;45.32
74466;BME280;62916;50.044;15.938;2023-02-15T01:48:46;100697.88;;;22.50;45.47
74466;BME280;62916;50.044;15.938;2023-02-15T01:51:18;100692.81;;;22.48;45.48
74466;BME280;62916;50.044;15.938;2023-02-15T01:53:53;100688.20;;;22.46;45.25
74466;BME280;62916;50.044;15.938;2023-02-15T01:56:29;100686.50;;;22.45;45.34
74466;BME280;62916;50.044;15.938;2023-02-15T01:59:05;100619.70;;;22.01;45.41
74466;BME280;62916;50.044;15.938;2023-02-15T02:01:37;100687.48;;;22.41;45.41
74466;BME280;62916;50.044;15.938;2023-02-15T02:04:13;100687.55;;;22.39;45.40
74466;BME280;62916;50.044;15.938;2023-02-15T02:06:47;100683.46;;;22.37;45.40
74466;BME280;62916;50.044;15.938;2023-02-15T02:09:19;100680.64;;;22.36;45.46
74466;BME280;62916;50.044;15.938;2023-02-15T02:11:50;100678.78;;;22.35;45.44
74466;BME280;62916;50.044;15.938;2023-02-15T02:14:24;100674.44;;;22.33;45.39
74466;BME280;62916;50.044;15.938;2023-02-15T02:17:01;100673.20;;;22.32;45.32
74466;BME280;62916;50.044;15.938;2023-02-15T02:19:56;100671.58;;;22.30;45.39
74466;BME280;62916;50.044;15.938;2023-02-15T02:25:50;100663.71;;;22.26;45.55
74466;BME280;62916;50.044;15.938;2023-02-15T02:31:43;100661.42;;;22.21;45.68
74466;BME280;62916;50.044;15.938;2023-02-15T02:34:18;100663.79;;;22.21;45.63
74466;BME280;62916;50.044;15.938;2023-02-15T02:36:55;100664.08;;;22.21;45.62
74466;BME280;62916;50.044;15.938;2023-02-15T02:39:36;100660.85;;;22.17;45.62
74466;BME280;62916;50.044;15.938;2023-02-15T02:42:17;100658.87;;;22.17;45.72
74466;BME280;62916;50.044;15.938;2023-02-15T02:44:51;100663.00;;;22.17;45.66
74466;BME280;62916;50.044;15.938;2023-02-15T02:47:29;100662.48;;;22.16;45.56
74466;BME280;62916;50.044;15.938;2023-02-15T02:50:03;100660.62;;;22.15;45.54
74466;BME280;62916;50.044;15.938;2023-02-15T02:52:42;100661.09;;;22.14;45.62
74466;BME280;62916;50.044;15.938;2023-02-15T02:55:15;100663.13;;;22.12;45.78
74466;BME280;62916;50.044;15.938;2023-02-15T02:57:53;100656.87;;;22.11;45.67
74466;BME280;62916;50.044;15.938;2023-02-15T03:00:27;100661.42;;;22.08;45.67
74466;BME280;62916;50.044;15.938;2023-02-15T03:03:03;100652.41;;;22.02;45.51
74466;BME280;62916;50.044;15.938;2023-02-15T03:05:39;100663.75;;;22.06;45.77
74466;BME280;62916;50.044;15.938;2023-02-15T03:08:12;100661.09;;;22.06;45.72
74466;BME280;62916;50.044;15.938;2023-02-15T03:10:53;100657.70;;;22.07;45.66
74466;BME280;62916;50.044;15.938;2023-02-15T03:13:26;100653.15;;;22.09;45.61
74466;BME280;62916;50.044;15.938;2023-02-15T03:15:58;100656.40;;;22.11;45.60
74466;BME280;62916;50.044;15.938;2023-02-15T03:18:50;100650.64;;;22.13;45.61
74466;BME280;62916;50.044;15.938;2023-02-15T03:21:32;100648.35;;;22.17;45.76
74466;BME280;62916;50.044;15.938;2023-02-15T03:24:09;100648.79;;;22.19;45.53
74466;BME280;62916;50.044;15.938;2023-02-15T03:26:45;100647.95;;;22.22;45.50
74466;BME280;62916;50.044;15.938;2023-02-15T03:29:19;100578.90;;;21.84;45.58
74466;BME280;62916;50.044;15.938;2023-02-15T03:31:49;100648.16;;;22.27;45.57
74466;BME280;62916;50.044;15.938;2023-02-15T03:34:22;100647.92;;;22.27;45.70
74466;BME280;62916;50.044;15.938;2023-02-15T03:36:58;100576.75;;;21.85;45.62
74466;BME280;62916;50.044;15.938;2023-02-15T03:39:33;100584.64;;;21.94;45.55
74466;BME280;62916;50.044;15.938;2023-02-15T03:42:11;100649.33;;;22.36;45.58
74466;BME280;62916;50.044;15.938;2023-02-15T03:44:51;100588.26;;;21.97;45.51
74466;BME280;62916;50.044;15.938;2023-02-15T03:47:27;100652.11;;;22.39;45.47
74466;BME280;62916;50.044;15.938;2023-02-15T03:50:03;100649.38;;;22.42;45.37
74466;BME280;62916;50.044;15.938;2023-02-15T03:52:59;100656.31;;;22.44;45.59
74466;BME280;62916;50.044;15.938;2023-02-15T03:55:32;100645.83;;;22.41;45.28
74466;BME280;62916;50.044;15.938;2023-02-15T03:58:04;100648.94;;;22.48;45.45
74466;BME280;62916;50.044;15.938;2023-02-15T04:00:57;100648.10;;;22.51;45.49
74466;BME280;62916;50.044;15.938;2023-02-15T04:03:51;100645.27;;;22.53;45.41
74466;BME280;62916;50.044;15.938;2023-02-15T04:06:25;100640.38;;;22.54;45.56
74466;BME280;62916;50.044;15.938;2023-02-15T04:08:56;100591.13;;;22.28;45.47
74466;BME280;62916;50.044;15.938;2023-02-15T04:11:44;100636.52;;;22.58;45.40
74466;BME280;62916;50.044;15.938;2023-02-15T04:14:15;100632.21;;;22.59;45.21
74466;BME280;62916;50.044;15.938;2023-02-15T04:17:15;100628.49;;;22.60;45.43
74466;BME280;62916;50.044;15.938;2023-02-15T04:19:46;100624.02;;;22.61;45.34
74466;BME280;62916;50.044;15.938;2023-02-15T04:22:35;100618.41;;;22.63;45.37
74466;BME280;62916;50.044;15.938;2023-02-15T04:25:23;100623.49;;;22.64;45.26
74466;BME280;62916;50.044;15.938;2023-02-15T04:27:55;100619.91;;;22.65;45.35
74466;BME280;62916;50.044;15.938;2023-02-15T04:30:26;100615.78;;;22.66;45.22
74466;BME280;62916;50.044;15.938;2023-02-15T04:32:57;100574.96;;;22.43;45.39
74466;BME280;62916;50.044;15.938;2023-02-15T04:35:28;100613.21;;;22.69;45.28
74466;BME280;62916;50.044;15.938;2023-02-15T04:38:01;100611.13;;;22.71;45.12
74466;BME280;62916;50.044;15.938;2023-02-15T04:40:32;100600.86;;;22.64;45.28
74466;BME280;62916;50.044;15.938;2023-02-15T04:43:02;100609.98;;;22.73;45.31
74466;BME280;62916;50.044;15.938;2023-02-15T04:45:34;100608.73;;;22.74;45.39
74466;BME280;62916;50.044;15.938;2023-02-15T04:48:05;100612.02;;;22.76;45.20
74466;BME280;62916;50.044;15.938;2023-02-15T04:50:35;100616.08;;;22.79;45.27
74466;BME280;62916;50.044;15.938;2023-02-15T04:53:06;100615.33;;;22.80;45.20
74466;BME280;62916;50.044;15.938;2023-02-15T04:55:38;100612.36;;;22.81;45.19
74466;BME280;62916;50.044;15.938;2023-02-15T04:58:08;100611.95;;;22.81;45.22
74466;BME280;62916;50.044;15.938;2023-02-15T05:00:39;100611.50;;;22.82;45.18
74466;BME280;62916;50.044;15.938;2023-02-15T05:03:10;100609.29;;;22.82;45.29
74466;BME280;62916;50.044;15.938;2023-02-15T05:05:42;100612.46;;;22.83;45.19
74466;BME280;62916;50.044;15.938;2023-02-15T05:08:14;100615.80;;;22.83;45.39
74466;BME280;62916;50.044;15.938;2023-02-15T05:10:44;100619.41;;;22.84;45.36
74466;BME280;62916;50.044;15.938;2023-02-15T05:13:18;100621.09;;;22.85;45.25
74466;BME280;62916;50.044;15.938;2023-02-15T05:15:52;100618.39;;;22.84;45.34
74466;BME280;62916;50.044;15.938;2023-02-15T05:18:23;100619.61;;;22.86;45.36
74466;BME280;62916;50.044;15.938;2023-02-15T05:20:54;100614.40;;;22.87;45.55
74466;BME280;62916;50.044;15.938;2023-02-15T05:23:26;100613.77;;;22.88;45.48
74466;BME280;62916;50.044;15.938;2023-02-15T05:25:56;100609.63;;;22.89;45.22
74466;BME280;62916;50.044;15.938;2023-02-15T05:28:45;100616.22;;;22.90;45.37
74466;BME280;62916;50.044;15.938;2023-02-15T05:31:18;100620.57;;;22.91;45.26
74466;BME280;62916;50.044;15.938;2023-02-15T05:33:49;100622.52;;;22.93;45.36
74466;BME280;62916;50.044;15.938;2023-02-15T05:36:20;100625.06;;;22.94;45.15
74466;BME280;62916;50.044;15.938;2023-02-15T05:38:51;100625.05;;;22.95;45.19
74466;BME280;62916;50.044;15.938;2023-02-15T05:41:22;100626.08;;;22.96;45.29
74466;BME280;62916;50.044;15.938;2023-02-15T05:43:56;100625.15;;;22.97;45.31
74466;BME280;62916;50.044;15.938;2023-02-15T05:46:27;100607.83;;;22.88;45.08
74466;BME280;62916;50.044;15.938;2023-02-15T05:48:57;100622.58;;;22.99;45.38
74466;BME280;62916;50.044;15.938;2023-02-15T05:51:28;100624.77;;;23.00;45.11
74466;BME280;62916;50.044;15.938;2023-02-15T05:53:59;100624.46;;;23.01;45.21
74466;BME280;62916;50.044;15.938;2023-02-15T05:56:30;100625.36;;;23.02;45.27
74466;BME280;62916;50.044;15.938;2023-02-15T05:59:02;100626.54;;;23.03;45.13
74466;BME280;62916;50.044;15.938;2023-02-15T06:01:33;100629.70;;;23.03;45.07
74466;BME280;62916;50.044;15.938;2023-02-15T06:04:03;100629.41;;;23.03;45.19
74466;BME280;62916;50.044;15.938;2023-02-15T06:06:34;100632.23;;;23.04;45.17
74466;BME280;62916;50.044;15.938;2023-02-15T06:09:06;100635.17;;;23.05;45.25
74466;BME280;62916;50.044;15.938;2023-02-15T06:11:37;100635.17;;;23.06;45.32
74466;BME280;62916;50.044;15.938;2023-02-15T06:14:07;100637.82;;;23.07;45.29
74466;BME280;62916;50.044;15.938;2023-02-15T06:16:38;100620.96;;;22.97;45.19
74466;BME280;62916;50.044;15.938;2023-02-15T06:19:09;100588.05;;;22.78;45.13
74466;BME280;62916;50.044;15.938;2023-02-15T06:21:40;100637.95;;;23.10;45.38
74466;BME280;62916;50.044;15.938;2023-02-15T06:24:11;100637.92;;;23.11;45.22
74466;BME280;62916;50.044;15.938;2023-02-15T06:26:42;100639.11;;;23.12;45.26
74466;BME280;62916;50.044;15.938;2023-02-15T06:29:14;100639.55;;;23.12;45.19
74466;BME280;62916;50.044;15.938;2023-02-15T06:31:44;100642.95;;;23.12;45.26
74466;BME280;62916;50.044;15.938;2023-02-15T06:34:16;100645.31;;;23.14;45.27
74466;BME280;62916;50.044;15.938;2023-02-15T06:36:46;100647.67;;;23.16;45.33
74466;BME280;62916;50.044;15.938;2023-02-15T06:39:17;100649.42;;;23.16;45.25
74466;BME280;62916;50.044;15.938;2023-02-15T06:41:48;100647.21;;;23.17;45.25
74466;BME280;62916;50.044;15.938;2023-02-15T06:44:19;100651.23;;;23.17;45.19
74466;BME280;62916;50.044;15.938;2023-02-15T06:46:50;100655.02;;;23.17;45.20
74466;BME280;62916;50.044;15.938;2023-02-15T06:49:20;100655.53;;;23.18;45.34
74466;BME280;62916;50.044;15.938;2023-02-15T06:51:51;100653.48;;;23.18;45.15
74466;BME280;62916;50.044;15.938;2023-02-15T06:54:22;100652.35;;;23.19;45.13
74466;BME280;62916;50.044;15.938;2023-02-15T06:56:52;100651.84;;;23.18;45.23
74466;BME280;62916;50.044;15.938;2023-02-15T06:59:23;100652.01;;;23.19;45.13
74466;BME280;62916;50.044;15.938;2023-02-15T07:01:54;100654.44;;;23.20;45.12
74466;BME280;62916;50.044;15.938;2023-02-15T07:04:25;100651.77;;;23.20;45.14
74466;BME280;62916;50.044;15.938;2023-02-15T07:06:58;100655.11;;;23.20;45.29
74466;BME280;62916;50.044;15.938;2023-02-15T07:09:29;100655.71;;;23.21;45.27
74466;BME280;62916;50.044;15.938;2023-02-15T07:11:59;100656.38;;;23.21;45.31
74466;BME280;62916;50.044;15.938;2023-02-15T07:14:48;100658.02;;;23.21;45.18
74466;BME280;62916;50.044;15.938;2023-02-15T07:17:18;100638.52;;;23.09;45.32
74466;BME280;62916;50.044;15.938;2023-02-15T07:20:06;100657.93;;;23.24;45.24
74466;BME280;62916;50.044;15.938;2023-02-15T07:22:37;100653.49;;;23.26;45.35
74466;BME280;62916;50.044;15.938;2023-02-15T07:25:10;100647.66;;;23.22;45.14
74466;BME280;62916;50.044;15.938;2023-02-15T07:27:42;100606.20;;;23.01;45.50
74466;BME280;62916;50.044;15.938;2023-02-15T07:30:16;100651.31;;;23.29;45.43
74466;BME280;62916;50.044;15.938;2023-02-15T07:32:47;100651.02;;;23.30;45.34
74466;BME280;62916;50.044;15.938;2023-02-15T07:35:35;100604.17;;;23.03;45.39
74466;BME280;62916;50.044;15.938;2023-02-15T07:38:06;100648.56;;;23.31;45.36
74466;BME280;62916;50.044;15.938;2023-02-15T07:40:37;100638.21;;;23.21;45.22
74466;BME280;62916;50.044;15.938;2023-02-15T07:43:07;100645.50;;;23.26;45.48
74466;BME280;62916;50.044;15.938;2023-02-15T07:45:39;100653.66;;;23.31;45.44
74466;BME280;62916;50.044;15.938;2023-02-15T07:48:09;100646.47;;;23.31;45.32
74466;BME280;62916;50.044;15.938;2023-02-15T07:50:41;100649.00;;;23.31;45.33
74466;BME280;62916;50.044;15.938;2023-02-15T07:53:12;100650.92;;;23.31;45.44
74466;BME280;62916;50.044;15.938;2023-02-15T07:55:42;100634.52;;;23.21;45.36
74466;BME280;62916;50.044;15.938;2023-02-15T07:58:13;100648.05;;;23.30;45.38
74466;BME280;62916;50.044;15.938;2023-02-15T08:00:44;100633.65;;;23.19;45.47
74466;BME280;62916;50.044;15.938;2023-02-15T08:03:28;100648.52;;;23.30;45.52
74466;BME280;62916;50.044;15.938;2023-02-15T08:05:59;100647.63;;;23.33;45.55
74466;BME280;62916;50.044;15.938;2023-02-15T08:08:30;100646.83;;;23.33;45.53
74466;BME280;62916;50.044;15.938;2023-02-15T08:11:06;100645.03;;;23.32;45.30
74466;BME280;62916;50.044;15.938;2023-02-15T08:13:59;100641.77;;;23.31;45.27
74466;BME280;62916;50.044;15.938;2023-02-15T08:16:35;100642.65;;;23.29;45.13
74466;BME280;62916;50.044;15.938;2023-02-15T08:19:08;100641.13;;;23.28;45.13
74466;BME280;62916;50.044;15.938;2023-02-15T08:21:42;100631.00;;;23.23;45.10
74466;BME280;62916;50.044;15.938;2023-02-15T08:24:15;100633.68;;;23.26;44.99
74466;BME280;62916;50.044;15.938;2023-02-15T08:26:46;100629.89;;;23.25;45.07
74466;BME280;62916;50.044;15.938;2023-02-15T08:29:20;100612.96;;;23.17;44.98
74466;BME280;62916;50.044;15.938;2023-02-15T08:31:54;100619.06;;;23.22;44.98
74466;BME280;62916;50.044;15.938;2023-02-15T08:34:28;100619.70;;;23.20;44.94
74466;BME280;62916;50.044;15.938;2023-02-15T08:36:59;100614.19;;;23.19;45.10
74466;BME280;62916;50.044;15.938;2023-02-15T08:39:30;100609.23;;;23.17;44.90
74466;BME280;62916;50.044;15.938;2023-02-15T08:42:01;100601.89;;;23.15;44.93
74466;BME280;62916;50.044;15.938;2023-02-15T08:44:33;100606.92;;;23.16;44.78
74466;BME280;62916;50.044;15.938;2023-02-15T08:47:04;100604.54;;;23.11;44.64
74466;BME280;62916;50.044;15.938;2023-02-15T08:49:35;100610.81;;;23.11;44.38
74466;BME280;62916;50.044;15.938;2023-02-15T08:52:06;100611.33;;;23.08;44.15
74466;BME280;62916;50.044;15.938;2023-02-15T08:54:36;100613.04;;;23.06;43.98
74466;BME280;62916;50.044;15.938;2023-02-15T08:57:07;100617.13;;;23.04;43.92
74466;BME280;62916;50.044;15.938;2023-02-15T08:59:39;100595.31;;;22.91;43.89
74466;BME280;62916;50.044;15.938;2023-02-15T09:02:11;100619.03;;;23.01;43.87
74466;BME280;62916;50.044;15.938;2023-02-15T09:04:42;100618.17;;;22.98;43.98
74466;BME280;62916;50.044;15.938;2023-02-15T09:07:13;100620.01;;;22.97;43.96
74466;BME280;62916;50.044;15.938;2023-02-15T09:09:44;100617.23;;;22.97;43.93
74466;BME280;62916;50.044;15.938;2023-02-15T09:12:16;100619.67;;;22.95;43.96
74466;BME280;62916;50.044;15.938;2023-02-15T09:14:49;100618.73;;;22.93;44.00
74466;BME280;62916;50.044;15.938;2023-02-15T09:17:19;100615.23;;;22.91;43.85
74466;BME280;62916;50.044;15.938;2023-02-15T09:19:50;100613.92;;;22.90;43.95
74466;BME280;62916;50.044;15.938;2023-02-15T09:22:21;100618.25;;;22.87;43.82
74466;BME280;62916;50.044;15.938;2023-02-15T09:24:52;100614.30;;;22.86;43.76
74466;BME280;62916;50.044;15.938;2023-02-15T09:27:23;100607.00;;;22.86;43.75
74466;BME280;62916;50.044;15.938;2023-02-15T09:29:54;100608.14;;;22.85;44.08
74466;BME280;62916;50.044;15.938;2023-02-15T09:32:25;100605.83;;;22.85;44.14
74466;BME280;62916;50.044;15.938;2023-02-15T09:34:56;100554.98;;;22.51;44.16
74466;BME280;62916;50.044;15.938;2023-02-15T09:37:26;100606.84;;;22.84;44.02
74466;BME280;62916;50.044;15.938;2023-02-15T09:39:57;100609.56;;;22.83;44.10
74466;BME280;62916;50.044;15.938;2023-02-15T09:42:50;100610.19;;;22.84;44.27
74466;BME280;62916;50.044;15.938;2023-02-15T09:45:43;100612.28;;;22.85;44.05
74466;BME280;62916;50.044;15.938;2023-02-15T09:48:26;100612.27;;;22.85;43.95
74466;BME280;62916;50.044;15.938;2023-02-15T09:51:13;100590.77;;;22.74;43.92
74466;BME280;62916;50.044;15.938;2023-02-15T09:54:01;100603.47;;;22.82;43.87
74466;BME280;62916;50.044;15.938;2023-02-15T09:56:41;100610.49;;;22.88;43.80
74466;BME280;62916;50.044;15.938;2023-02-15T09:59:19;100605.80;;;22.88;43.87
74466;BME280;62916;50.044;15.938;2023-02-15T10:02:04;100603.45;;;22.93;43.89
74466;BME280;62916;50.044;15.938;2023-02-15T10:04:53;100601.44;;;22.97;43.85
74466;BME280;62916;50.044;15.938;2023-02-15T10:07:43;100606.45;;;23.00;43.78
74466;BME280;62916;50.044;15.938;2023-02-15T10:10:24;100599.00;;;23.01;43.92
74466;BME280;62916;50.044;15.938;2023-02-15T10:13:17;100600.50;;;23.03;43.87
74466;BME280;62916;50.044;15.938;2023-02-15T10:16:01;100569.06;;;22.87;43.89
74466;BME280;62916;50.044;15.938;2023-02-15T10:18:46;100594.76;;;23.06;43.93
74466;BME280;62916;50.044;15.938;2023-02-15T10:21:27;100576.58;;;22.98;44.01
74466;BME280;62916;50.044;15.938;2023-02-15T10:24:18;100565.05;;;22.97;44.03
74466;BME280;62916;50.044;15.938;2023-02-15T10:26:53;100581.77;;;23.12;44.19
74466;BME280;62916;50.044;15.938;2023-02-15T10:29:32;100582.81;;;23.14;44.29
74466;BME280;62916;50.044;15.938;2023-02-15T10:32:13;100576.10;;;23.18;44.27
74466;BME280;62916;50.044;15.938;2023-02-15T10:34:52;100559.17;;;23.12;44.37
74466;BME280;62916;50.044;15.938;2023-02-15T10:37:44;100571.22;;;23.27;44.24
74466;BME280;62916;50.044;15.938;2023-02-15T10:40:25;100568.88;;;23.29;44.16
74466;BME280;62916;50.044;15.938;2023-02-15T10:43:08;100565.54;;;23.32;44.15
74466;BME280;62916;50.044;15.938;2023-02-15T10:45:51;100560.58;;;23.34;44.21
74466;BME280;62916;50.044;15.938;2023-02-15T10:48:41;100557.23;;;23.35;44.10
74466;BME280;62916;50.044;15.938;2023-02-15T10:51:22;100553.42;;;23.36;44.11
74466;BME280;62916;50.044;15.938;2023-02-15T10:54:09;100551.02;;;23.38;44.15
74466;BME280;62916;50.044;15.938;2023-02-15T10:56:50;100550.44;;;23.40;44.16
74466;BME280;62916;50.044;15.938;2023-02-15T10:59:45;100546.67;;;23.41;44.08
74466;BME280;62916;50.044;15.938;2023-02-15T11:02:23;100480.27;;;22.99;44.08
74466;BME280;62916;50.044;15.938;2023-02-15T11:05:07;100544.57;;;23.36;44.13
74466;BME280;62916;50.044;15.938;2023-02-15T11:07:48;100553.98;;;23.44;44.01
74466;BME280;62916;50.044;15.938;2023-02-15T11:10:29;100546.10;;;23.44;44.08
74466;BME280;62916;50.044;15.938;2023-02-15T11:13:05;100547.55;;;23.46;44.17
74466;BME280;62916;50.044;15.938;2023-02-15T11:15:41;100540.35;;;23.47;43.95
74466;BME280;62916;50.044;15.938;2023-02-15T11:18:19;100536.04;;;23.48;44.06
74466;BME280;62916;50.044;15.938;2023-02-15T11:20:56;100529.91;;;23.48;43.98
74466;BME280;62916;50.044;15.938;2023-02-15T11:23:29;100526.17;;;23.49;43.92
74466;BME280;62916;50.044;15.938;2023-02-15T11:26:02;100527.05;;;23.50;44.01
74466;BME280;62916;50.044;15.938;2023-02-15T11:28:37;100520.52;;;23.48;43.99
74466;BME280;62916;50.044;15.938;2023-02-15T11:31:15;100516.55;;;23.49;44.03
74466;BME280;62916;50.044;15.938;2023-02-15T11:33:51;100514.30;;;23.50;44.02
74466;BME280;62916;50.044;15.938;2023-02-15T11:36:27;100512.64;;;23.51;44.00
74466;BME280;62916;50.044;15.938;2023-02-15T11:39:02;100515.98;;;23.51;44.14
74466;BME280;62916;50.044;15.938;2023-02-15T11:41:38;100513.34;;;23.52;44.02
74466;BME280;62916;50.044;15.938;2023-02-15T11:44:15;100485.04;;;23.36;44.05
74466;BME280;62916;50.044;15.938;2023-02-15T11:46:48;100508.74;;;23.52;44.01
74466;BME280;62916;50.044;15.938;2023-02-15T11:49:25;100504.95;;;23.53;44.07
74466;BME280;62916;50.044;15.938;2023-02-15T11:51:59;100501.67;;;23.52;44.05
74466;BME280;62916;50.044;15.938;2023-02-15T11:54:32;100499.31;;;23.51;43.99
74466;BME280;62916;50.044;15.938;2023-02-15T11:57:14;100498.34;;;23.52;44.00
74466;BME280;62916;50.044;15.938;2023-02-15T11:59:49;100496.55;;;23.51;43.88
74466;BME280;62916;50.044;15.938;2023-02-15T12:02:22;100491.75;;;23.51;44.11
74466;BME280;62916;50.044;15.938;2023-02-15T12:04:58;100492.59;;;23.51;44.03
74466;BME280;62916;50.044;15.938;2023-02-15T12:07:34;100496.60;;;23.51;44.10
74466;BME280;62916;50.044;15.938;2023-02-15T12:10:19;100495.35;;;23.51;44.13
74466;BME280;62916;50.044;15.938;2023-02-15T12:13:10;100488.56;;;23.50;44.13
74466;BME280;62916;50.044;15.938;2023-02-15T12:15:43;100485.67;;;23.51;44.09
74466;BME280;62916;50.044;15.938;2023-02-15T12:18:35;100487.89;;;23.50;44.24
74466;BME280;62916;50.044;15.938;2023-02-15T12:21:10;100484.55;;;23.50;44.05
74466;BME280;62916;50.044;15.938;2023-02-15T12:23:48;100468.55;;;23.44;44.11
74466;BME280;62916;50.044;15.938;2023-02-15T12:26:27;100476.13;;;23.52;44.16
74466;BME280;62916;50.044;15.938;2023-02-15T12:29:00;100480.07;;;23.58;44.13
74466;BME280;62916;50.044;15.938;2023-02-15T12:31:36;100481.97;;;23.60;44.04
74466;BME280;62916;50.044;15.938;2023-02-15T12:34:15;100479.98;;;23.60;44.04
74466;BME280;62916;50.044;15.938;2023-02-15T12:36:50;100475.39;;;23.60;44.00
74466;BME280;62916;50.044;15.938;2023-02-15T12:39:25;100474.71;;;23.60;44.14
74466;BME280;62916;50.044;15.938;2023-02-15T12:42:04;100473.35;;;23.60;44.00
74466;BME280;62916;50.044;15.938;2023-02-15T12:44:36;100465.70;;;23.60;44.16
74466;BME280;62916;50.044;15.938;2023-02-15T12:47:19;100461.87;;;23.59;44.11
74466;BME280;62916;50.044;15.938;2023-02-15T12:50:16;100457.67;;;23.60;44.17
74466;BME280;62916;50.044;15.938;2023-02-15T12:53:05;100445.36;;;23.50;44.15
74466;BME280;62916;50.044;15.938;2023-02-15T12:55:36;100456.23;;;23.61;44.06
74466;BME280;62916;50.044;15.938;2023-02-15T12:58:17;100451.52;;;23.58;43.84
74466;BME280;62916;50.044;15.938;2023-02-15T13:00:48;100452.52;;;23.60;43.97
74466;BME280;62916;50.044;15.938;2023-02-15T13:03:32;100445.15;;;23.60;43.97
74466;BME280;62916;50.044;15.938;2023-02-15T13:06:05;100433.61;;;23.55;44.08
74466;BME280;62916;50.044;15.938;2023-02-15T13:08:45;100440.98;;;23.61;44.05
74466;BME280;62916;50.044;15.938;2023-02-15T13:11:22;100435.30;;;23.62;44.07
74466;BME280;62916;50.044;15.938;2023-02-15T13:13:57;100435.98;;;23.65;44.01
74466;BME280;62916;50.044;15.938;2023-02-15T13:16:32;100432.90;;;23.66;43.89
74466;BME280;62916;50.044;15.938;2023-02-15T13:19:09;100430.61;;;23.68;43.87
74466;BME280;62916;50.044;15.938;2023-02-15T13:21:45;100427.68;;;23.70;44.00
74466;BME280;62916;50.044;15.938;2023-02-15T13:24:20;100423.06;;;23.71;43.92
74466;BME280;62916;50.044;15.938;2023-02-15T13:26:54;100414.08;;;23.73;43.90
74466;BME280;62916;50.044;15.938;2023-02-15T13:29:46;100411.33;;;23.78;44.04